Time;durP1;ratioP1;P1;durP2;ratioP2;P2;SDS_P1;SDS_P2;PMS_P1;PMS_P2;Temp;Humidity;BMP_temperature;BMP_pressure;BME280_temperature;BME280_humidity;BME280_pressure;Samples;Min_cycle;Max_cycle;Signal;HPM_P1;HPM_P2
2021/07/07 00:01:47;;;;;;;5.53;3.65;;;;;;;18.05;66.13;99859.61;2111864;83;21022;-71
2021/07/07 00:04:50;;;;;;;4.30;2.90;;;;;;;17.88;66.54;99866.06;2114866;83;21608;-74
2021/07/07 00:07:51;;;;;;;4.12;3.15;;;;;;;17.80;66.89;99865.00;2112797;83;21518;-71
2021/07/07 00:10:53;;;;;;;3.85;2.98;;;;;;;17.77;66.83;99866.76;2111786;83;20983;-71
2021/07/07 00:13:55;;;;;;;5.60;3.20;;;;;;;17.78;66.84;99857.69;2110212;83;21003;-71
2021/07/07 00:16:56;;;;;;;10.38;3.90;;;;;;;17.77;66.72;99853.86;2113242;83;21531;-70
2021/07/07 00:19:58;;;;;;;5.40;3.77;;;;;;;17.77;66.85;99852.00;2113729;83;21007;-71
2021/07/07 00:23:02;;;;;;;5.03;3.67;;;;;;;17.77;66.87;99860.05;2108624;83;21014;-70
2021/07/07 00:26:03;;;;;;;6.08;3.83;;;;;;;17.74;66.99;99859.64;2114654;83;20943;-71
2021/07/07 00:29:05;;;;;;;6.65;3.60;;;;;;;17.67;67.45;99869.10;2110965;83;21160;-71
2021/07/07 00:32:07;;;;;;;5.12;3.52;;;;;;;17.59;67.76;99865.34;2113347;83;21059;-74
2021/07/07 00:35:10;;;;;;;6.70;3.83;;;;;;;17.51;68.10;99864.27;2111343;83;21054;-71
2021/07/07 00:38:13;;;;;;;5.92;3.67;;;;;;;17.35;68.32;99865.13;2114452;83;21036;-71
2021/07/07 00:41:14;;;;;;;4.90;3.65;;;;;;;17.34;68.87;99858.09;2111767;83;20988;-71
2021/07/07 00:44:16;;;;;;;5.15;3.65;;;;;;;17.30;68.86;99858.24;2111776;83;21094;-71
2021/07/07 00:47:17;;;;;;;6.40;3.62;;;;;;;17.35;68.88;99862.97;2110861;83;20977;-72
2021/07/07 00:50:19;;;;;;;9.08;4.22;;;;;;;17.41;68.95;99862.91;2107020;83;21034;-71
2021/07/07 00:53:21;;;;;;;9.88;3.83;;;;;;;17.48;68.78;99874.42;2115823;83;21010;-70
2021/07/07 00:56:23;;;;;;;5.22;4.10;;;;;;;17.51;69.04;99881.18;2113519;83;21054;-70
2021/07/07 00:59:26;;;;;;;7.95;3.22;;;;;;;17.47;69.00;99882.14;2111399;83;21016;-72
2021/07/07 01:02:28;;;;;;;7.37;3.65;;;;;;;17.50;68.95;99888.13;2110610;83;21448;-72
2021/07/07 01:05:31;;;;;;;9.13;3.47;;;;;;;17.49;68.80;99883.28;2110510;83;21073;-71
2021/07/07 01:08:32;;;;;;;9.68;4.08;;;;;;;17.46;68.75;99875.67;2111710;83;21458;-70
2021/07/07 01:11:35;;;;;;;7.47;3.72;;;;;;;17.39;68.64;99885.09;2110999;83;21089;-70
2021/07/07 01:14:36;;;;;;;4.30;3.90;;;;;;;17.38;68.73;99889.34;2114966;83;21003;-70
2021/07/07 01:17:39;;;;;;;6.87;3.83;;;;;;;17.34;68.99;99888.12;2113706;82;21002;-71
2021/07/07 01:20:40;;;;;;;7.22;3.55;;;;;;;17.31;68.92;99884.01;2118368;82;20983;-70
2021/07/07 01:23:42;;;;;;;5.72;3.50;;;;;;;17.29;68.85;99877.22;2113053;82;20979;-70
2021/07/07 01:26:45;;;;;;;5.35;3.60;;;;;;;17.21;69.00;99881.00;2116233;82;21450;-74
2021/07/07 01:29:47;;;;;;;6.15;3.58;;;;;;;17.18;68.91;99884.11;2115699;82;20995;-70
2021/07/07 01:32:49;;;;;;;6.25;3.60;;;;;;;17.15;68.93;99885.36;2115179;82;21467;-70
2021/07/07 01:35:51;;;;;;;4.92;3.67;;;;;;;17.10;68.98;99889.72;2116488;83;21042;-71
2021/07/07 01:38:53;;;;;;;8.53;3.80;;;;;;;17.10;69.13;99889.72;2115606;82;21580;-71
2021/07/07 01:41:54;;;;;;;3.52;3.22;;;;;;;17.07;69.17;99889.63;2117269;82;21066;-70
2021/07/07 01:44:56;;;;;;;4.85;3.25;;;;;;;17.07;69.25;99895.52;2116166;82;20998;-71
2021/07/07 01:47:57;;;;;;;7.05;3.55;;;;;;;17.02;69.19;99891.60;2115345;82;20995;-73
2021/07/07 01:50:59;;;;;;;7.28;3.85;;;;;;;16.99;69.11;99894.72;2116572;82;20995;-70
2021/07/07 01:54:00;;;;;;;6.22;3.87;;;;;;;16.90;69.40;99897.34;2117128;82;20971;-72
2021/07/07 01:57:05;;;;;;;4.83;3.60;;;;;;;16.85;69.55;99896.34;2114004;82;21018;-72
2021/07/07 02:00:09;;;;;;;4.55;3.72;;;;;;;16.76;69.79;99895.23;2118193;82;20990;-72
2021/07/07 02:03:10;;;;;;;7.00;3.85;;;;;;;16.77;69.91;99889.36;2089359;83;21030;-71
2021/07/07 02:06:11;;;;;;;9.43;3.60;;;;;;;16.79;69.98;99892.66;2115061;82;21613;-71
2021/07/07 02:09:13;;;;;;;5.50;3.75;;;;;;;16.76;69.82;99893.05;2117324;83;21002;-72
2021/07/07 02:12:14;;;;;;;6.80;3.70;;;;;;;16.70;70.00;99893.38;2115082;82;21035;-71
2021/07/07 02:15:23;;;;;;;6.95;3.85;;;;;;;16.63;70.28;99893.91;2116987;82;21146;-71
2021/07/07 02:18:25;;;;;;;4.45;3.70;;;;;;;16.56;70.37;99895.28;2108278;83;21480;-70
2021/07/07 02:21:26;;;;;;;6.60;3.65;;;;;;;16.49;70.59;99894.47;2118493;83;21149;-75
2021/07/07 02:24:28;;;;;;;7.50;3.60;;;;;;;16.47;70.80;99893.87;2109384;83;21089;-72
2021/07/07 02:27:30;;;;;;;5.78;3.85;;;;;;;16.48;70.65;99898.72;2110122;83;21125;-71
2021/07/07 02:30:35;;;;;;;5.53;3.85;;;;;;;16.45;70.94;99895.13;2113108;83;21378;-71
2021/07/07 02:33:37;;;;;;;7.45;3.95;;;;;;;16.42;71.01;99898.22;2109292;83;20964;-71
2021/07/07 02:36:38;;;;;;;14.95;4.12;;;;;;;16.39;71.13;99898.61;2111490;83;20996;-71
2021/07/07 02:39:40;;;;;;;6.78;4.30;;;;;;;16.39;71.14;99896.78;2113671;83;21711;-73
2021/07/07 02:42:41;;;;;;;7.00;4.17;;;;;;;16.40;70.83;99899.75;2113266;83;20974;-71
2021/07/07 02:45:44;;;;;;;5.40;3.98;;;;;;;16.40;70.91;99904.30;2112841;83;20983;-71
2021/07/07 02:48:45;;;;;;;6.05;3.58;;;;;;;16.41;71.02;99900.05;2113153;83;21094;-71
2021/07/07 02:51:47;;;;;;;8.65;3.92;;;;;;;16.41;71.17;99905.41;2112564;83;21042;-71
2021/07/07 02:54:48;;;;;;;14.63;4.28;;;;;;;16.24;71.14;99901.53;2113890;83;21013;-71
2021/07/07 02:58:05;;;;;;;7.55;3.42;;;;;;;16.23;71.42;99913.29;2116962;83;21046;-71
2021/07/07 03:01:03;;;;;;;8.55;4.12;;;;;;;16.29;71.40;99908.43;2108937;83;21106;-76
2021/07/07 03:04:05;;;;;;;7.17;3.85;;;;;;;16.34;71.51;99919.34;2111694;83;20982;-71
2021/07/07 03:07:07;;;;;;;14.58;4.35;;;;;;;16.38;71.56;99927.77;2114003;83;21518;-71
2021/07/07 03:10:12;;;;;;;12.13;5.00;;;;;;;16.37;71.84;99945.70;2112686;83;21042;-71
2021/07/07 03:13:16;;;;;;;7.83;4.45;;;;;;;16.40;72.27;99957.84;2111197;83;21508;-71
2021/07/07 03:16:17;;;;;;;8.18;5.05;;;;;;;16.46;72.80;99945.77;2113390;82;21549;-70
2021/07/07 03:19:19;;;;;;;8.90;4.75;;;;;;;16.61;73.36;99937.48;2114079;83;21031;-71
2021/07/07 03:22:20;;;;;;;7.33;4.33;;;;;;;16.73;72.95;99945.20;2115988;82;21070;-71
2021/07/07 03:25:23;;;;;;;5.90;4.97;;;;;;;16.87;72.95;99946.53;2114594;83;21109;-73
2021/07/07 03:28:25;;;;;;;7.20;4.45;;;;;;;17.02;73.00;99953.25;2112930;82;21042;-72
2021/07/07 03:31:27;;;;;;;8.68;4.50;;;;;;;17.17;72.92;99949.47;2110472;83;21030;-75
2021/07/07 03:34:28;;;;;;;8.03;4.70;;;;;;;17.29;72.79;99944.25;2119470;82;21030;-72
2021/07/07 03:37:30;;;;;;;12.23;4.50;;;;;;;17.38;72.75;99947.82;2114875;82;21040;-71
2021/07/07 03:40:37;;;;;;;7.87;4.83;;;;;;;17.47;72.77;99961.27;2111525;82;21474;-72
2021/07/07 03:43:38;;;;;;;11.78;5.17;;;;;;;17.53;72.63;99960.11;2119579;82;21054;-75
2021/07/07 03:46:40;;;;;;;10.43;5.20;;;;;;;17.57;72.65;99969.36;2112539;82;20982;-75
2021/07/07 03:49:41;;;;;;;8.93;4.83;;;;;;;17.65;72.69;99973.13;2115396;82;21045;-72
2021/07/07 03:52:44;;;;;;;7.97;4.60;;;;;;;17.60;72.54;99958.22;2113549;83;21630;-71
2021/07/07 03:55:45;;;;;;;9.55;4.92;;;;;;;17.60;72.74;99957.70;2116782;82;21124;-71
2021/07/07 03:58:47;;;;;;;8.03;4.90;;;;;;;17.57;72.74;99970.70;2116923;82;21443;-72
2021/07/07 04:01:49;;;;;;;8.68;4.87;;;;;;;17.62;72.87;99970.87;2114512;82;21882;-73
2021/07/07 04:04:51;;;;;;;7.08;4.58;;;;;;;17.77;72.96;99975.96;2115964;82;21042;-71
2021/07/07 04:07:53;;;;;;;9.30;4.92;;;;;;;17.91;72.99;99981.04;2110310;82;21011;-71
2021/07/07 04:10:54;;;;;;;7.25;4.95;;;;;;;18.03;72.95;99976.30;2114609;82;21015;-72
2021/07/07 04:13:56;;;;;;;9.50;4.72;;;;;;;18.13;73.11;99991.38;2112421;82;21070;-74
2021/07/07 04:16:59;;;;;;;9.85;4.67;;;;;;;18.23;73.22;99990.38;2113404;82;21041;-71
2021/07/07 04:20:02;;;;;;;9.73;4.60;;;;;;;18.31;73.27;99990.62;2110852;83;21026;-71
2021/07/07 04:23:03;;;;;;;12.68;5.17;;;;;;;18.41;73.19;99985.55;2110735;83;20960;-71
2021/07/07 04:26:06;;;;;;;12.03;5.25;;;;;;;18.60;72.98;99986.41;2113406;83;21467;-76
2021/07/07 04:29:08;;;;;;;9.90;4.60;;;;;;;18.80;72.72;99992.42;2111859;83;21078;-71
2021/07/07 04:32:10;;;;;;;6.67;5.00;;;;;;;18.93;72.55;99998.19;2113569;83;21079;-73
2021/07/07 04:35:16;;;;;;;9.30;5.17;;;;;;;19.10;72.51;99999.75;2108871;83;21074;-71
2021/07/07 04:38:17;;;;;;;11.75;5.70;;;;;;;19.24;72.24;100001.22;2112119;83;21114;-71
2021/07/07 04:41:18;;;;;;;11.20;5.08;;;;;;;19.53;72.00;99994.73;2113340;83;21490;-73
2021/07/07 04:44:20;;;;;;;10.00;4.62;;;;;;;19.73;71.83;99999.04;2115594;83;21134;-74
2021/07/07 04:47:22;;;;;;;6.95;4.85;;;;;;;20.15;71.87;99999.30;2111762;83;21058;-72
2021/07/07 04:50:23;;;;;;;8.33;4.12;;;;;;;20.89;71.53;100011.50;2110251;83;21463;-72
2021/07/07 04:53:25;;;;;;;6.62;4.58;;;;;;;21.61;70.91;100010.55;2109461;83;21093;-74
2021/07/07 04:56:26;;;;;;;7.85;4.22;;;;;;;22.26;70.09;100009.25;2110919;83;21050;-72
2021/07/07 04:59:29;;;;;;;10.43;3.80;;;;;;;22.88;69.12;100004.73;2112686;83;21825;-71
2021/07/07 05:02:30;;;;;;;6.50;4.15;;;;;;;23.36;68.06;100003.98;2109220;83;21090;-72
2021/07/07 05:05:32;;;;;;;5.60;3.50;;;;;;;23.87;66.99;100001.00;2109862;83;21467;-72
2021/07/07 05:08:33;;;;;;;6.40;3.20;;;;;;;24.34;66.36;100007.89;2109646;83;21050;-71
2021/07/07 05:11:38;;;;;;;6.95;3.62;;;;;;;24.78;65.06;100004.14;2109364;83;21020;-72
2021/07/07 05:14:39;;;;;;;10.35;3.58;;;;;;;25.22;64.01;100005.96;2107469;83;21055;-77
2021/07/07 05:17:43;;;;;;;4.28;3.50;;;;;;;25.25;63.05;100012.76;2112563;83;21078;-74
2021/07/07 05:20:44;;;;;;;4.78;3.20;;;;;;;25.07;62.60;100011.86;2110521;83;20995;-72
2021/07/07 05:23:46;;;;;;;8.73;3.70;;;;;;;24.86;61.96;100017.72;2114545;83;21069;-71
2021/07/07 05:26:48;;;;;;;12.80;3.85;;;;;;;24.52;61.46;100009.38;2112742;83;21622;-72
2021/07/07 05:29:49;;;;;;;4.78;3.20;;;;;;;24.69;61.97;100009.76;2111948;83;21050;-71
2021/07/07 05:32:51;;;;;;;14.65;3.90;;;;;;;25.29;61.52;100012.52;2112999;83;21541;-77
2021/07/07 05:35:53;;;;;;;4.53;3.27;;;;;;;25.53;59.57;100006.59;2109785;83;21027;-77
2021/07/07 05:38:54;;;;;;;5.15;3.08;;;;;;;25.74;59.10;100000.67;2114944;83;20987;-77
2021/07/07 05:41:57;;;;;;;5.60;3.10;;;;;;;25.91;58.42;99999.34;2109333;83;21065;-79
2021/07/07 05:44:59;;;;;;;3.95;2.98;;;;;;;26.11;58.61;100000.44;2115270;83;21574;-77
2021/07/07 05:48:00;;;;;;;49.50;5.50;;;;;;;26.38;57.28;100002.32;2110509;83;21011;-77
2021/07/07 05:51:04;;;;;;;3.95;3.17;;;;;;;26.58;56.97;100006.09;2112344;83;21983;-76
2021/07/07 05:54:05;;;;;;;6.08;3.00;;;;;;;26.84;56.35;100012.31;2114013;83;21027;-77
2021/07/07 05:57:10;;;;;;;4.20;3.00;;;;;;;26.97;55.43;100020.41;2108308;83;21095;-77
2021/07/07 06:00:16;;;;;;;3.50;3.20;;;;;;;27.02;54.81;100019.85;2114129;83;21019;-76
2021/07/07 06:03:17;;;;;;;3.35;2.83;;;;;;;27.27;54.46;100031.22;2113013;83;21137;-80
2021/07/07 06:06:19;;;;;;;5.83;3.10;;;;;;;27.39;54.54;100040.41;2112328;83;20990;-76
2021/07/07 06:09:20;;;;;;;4.45;3.05;;;;;;;27.67;54.54;100044.34;2113155;83;20948;-75
2021/07/07 06:12:22;;;;;;;3.17;2.87;;;;;;;28.02;53.50;100047.16;2110760;83;21097;-76
2021/07/07 06:15:25;;;;;;;3.08;2.52;;;;;;;27.98;52.83;100040.63;2108594;83;21152;-75
2021/07/07 06:18:27;;;;;;;21.97;3.72;;;;;;;27.66;52.23;100046.00;2110051;83;21075;-76
2021/07/07 06:21:28;;;;;;;4.83;2.98;;;;;;;27.37;52.31;100049.44;2111245;83;20999;-76
2021/07/07 06:24:30;;;;;;;7.00;2.90;;;;;;;27.04;52.85;100053.07;2110140;83;21090;-78
2021/07/07 06:27:31;;;;;;;3.60;2.62;;;;;;;26.74;52.71;100058.05;2106911;83;21561;-77
2021/07/07 06:30:33;;;;;;;5.78;3.30;;;;;;;26.45;52.16;100055.62;2106443;83;21020;-78
2021/07/07 06:33:34;;;;;;;3.22;2.77;;;;;;;26.05;52.31;100055.36;2112006;83;21077;-76
2021/07/07 06:36:36;;;;;;;3.75;2.98;;;;;;;25.96;53.03;100057.50;2112546;83;20994;-77
2021/07/07 06:39:39;;;;;;;3.75;2.92;;;;;;;26.04;52.98;100051.53;2111845;83;21045;-78
2021/07/07 06:42:41;;;;;;;4.30;2.75;;;;;;;26.29;53.56;100058.34;2106252;83;21042;-77
2021/07/07 06:45:42;;;;;;;7.28;2.83;;;;;;;26.78;53.05;100052.34;2111518;83;21035;-78
2021/07/07 06:48:44;;;;;;;5.28;2.87;;;;;;;27.16;52.45;100048.70;2110432;83;21148;-81
2021/07/07 06:51:45;;;;;;;6.90;2.62;;;;;;;27.43;52.08;100041.50;2108307;83;21055;-78
2021/07/07 06:54:48;;;;;;;3.92;2.40;;;;;;;27.61;51.09;100037.30;2113604;83;21065;-77
2021/07/07 06:57:50;;;;;;;4.97;2.50;;;;;;;27.85;51.35;100032.56;2112194;83;21063;-80
2021/07/07 07:00:51;;;;;;;3.95;2.45;;;;;;;28.08;50.64;100027.73;2109475;83;21094;-78
2021/07/07 07:03:53;;;;;;;3.95;2.42;;;;;;;28.44;50.98;100026.09;2109869;83;21038;-84
2021/07/07 07:06:55;;;;;;;3.30;2.70;;;;;;;28.85;49.36;100022.11;2111212;83;20963;-81
2021/07/07 07:09:59;;;;;;;7.10;2.58;;;;;;;29.05;49.69;100023.26;2110375;83;21518;-78
2021/07/07 07:13:00;;;;;;;4.12;2.75;;;;;;;29.56;49.43;100024.50;2112191;83;21034;-82
2021/07/07 07:16:02;;;;;;;5.03;2.20;;;;;;;29.73;48.00;100023.45;2110849;83;21479;-84
2021/07/07 07:19:04;;;;;;;3.60;2.10;;;;;;;29.69;46.96;100023.23;2114606;83;21767;-84
2021/07/07 07:22:05;;;;;;;6.60;2.30;;;;;;;29.55;47.15;100018.23;2109907;83;21042;-84
2021/07/07 07:25:10;;;;;;;5.80;2.60;;;;;;;29.64;46.92;100022.50;2112288;83;21912;-79
2021/07/07 07:28:11;;;;;;;4.15;2.35;;;;;;;29.77;46.92;100023.69;2110367;83;21462;-78
2021/07/07 07:31:13;;;;;;;8.18;2.47;;;;;;;30.13;46.82;100025.30;2112340;83;20987;-80
2021/07/07 07:34:15;;;;;;;7.50;2.98;;;;;;;30.18;44.68;100032.03;2109603;83;21035;-79
2021/07/07 07:37:37;;;;;;;9.73;3.00;;;;;;;29.92;46.25;100044.75;2111378;83;21541;-80
2021/07/07 07:40:37;;;;;;;5.50;2.70;;;;;;;30.26;46.05;100050.53;2105970;83;21558;-83
2021/07/07 07:43:42;;;;;;;3.20;2.55;;;;;;;30.38;45.31;100054.16;2110957;83;20989;-76
2021/07/07 07:46:44;;;;;;;5.83;2.30;;;;;;;30.64;45.38;100053.73;2110656;83;21038;-76
2021/07/07 07:49:46;;;;;;;8.70;2.98;;;;;;;30.81;45.31;100049.30;2105966;83;21535;-76
2021/07/07 07:52:47;;;;;;;3.70;2.62;;;;;;;30.89;45.27;100021.77;2108227;83;21735;-76
2021/07/07 07:55:49;;;;;;;3.00;2.77;;;;;;;31.01;44.39;100044.54;2112275;83;21058;-76
2021/07/07 07:58:51;;;;;;;2.65;2.45;;;;;;;31.15;44.36;100046.70;2109206;83;21023;-77
2021/07/07 08:01:52;;;;;;;5.17;2.60;;;;;;;31.40;43.99;100048.13;2112832;83;21054;-75
2021/07/07 08:04:54;;;;;;;6.70;2.80;;;;;;;31.53;43.24;100049.77;2115410;83;21086;-74
2021/07/07 08:08:01;;;;;;;2.92;2.67;;;;;;;31.62;43.48;100045.17;2112582;83;20963;-76
2021/07/07 08:10:59;;;;;;;3.95;2.40;;;;;;;31.83;43.44;100044.15;2113261;83;21051;-81
2021/07/07 08:14:00;;;;;;;5.00;2.42;;;;;;;32.17;43.06;100040.07;2108967;83;21021;-76
2021/07/07 08:17:02;;;;;;;6.85;2.75;;;;;;;32.20;42.82;100042.98;2115425;82;21030;-77
2021/07/07 08:20:10;;;;;;;6.97;2.40;;;;;;;32.24;42.55;100039.05;2114999;83;21015;-76
2021/07/07 08:23:12;;;;;;;4.42;2.70;;;;;;;32.44;42.71;100042.66;2111678;83;22421;-77
2021/07/07 08:26:14;;;;;;;7.15;2.75;;;;;;;32.68;42.84;100036.81;2113478;83;21033;-75
2021/07/07 08:29:16;;;;;;;6.80;2.70;;;;;;;32.90;41.89;100038.69;2113563;83;21585;-74
2021/07/07 08:32:19;;;;;;;5.75;2.58;;;;;;;32.90;41.48;100033.75;2109488;83;21053;-75
2021/07/07 08:35:22;;;;;;;5.67;2.72;;;;;;;33.20;41.02;100036.22;2110809;83;21067;-74
2021/07/07 08:38:23;;;;;;;2.45;2.25;;;;;;;33.17;41.04;100042.33;2107789;83;21055;-75
2021/07/07 08:41:25;;;;;;;6.20;2.62;;;;;;;33.29;40.49;100037.03;2110398;83;21534;-75
2021/07/07 08:44:26;;;;;;;3.50;2.62;;;;;;;33.43;40.78;100037.70;2110699;83;21090;-74
2021/07/07 08:47:28;;;;;;;9.68;3.20;;;;;;;33.49;39.38;100045.23;2109250;83;21494;-74
2021/07/07 08:50:34;;;;;;;5.95;3.02;;;;;;;33.19;39.73;100041.45;2113376;83;21506;-74
2021/07/07 08:53:36;;;;;;;4.72;2.40;;;;;;;33.24;39.75;100040.73;2113450;83;21297;-75
2021/07/07 08:56:42;;;;;;;5.78;2.90;;;;;;;33.38;39.73;100036.48;2110742;83;22456;-75
2021/07/07 08:59:44;;;;;;;5.83;2.58;;;;;;;33.70;38.68;100045.42;2111144;83;21042;-76
2021/07/07 09:02:58;;;;;;;4.05;3.17;;;;;;;33.33;37.53;100043.50;2108556;83;21082;-76
2021/07/07 09:06:05;;;;;;;5.78;2.67;;;;;;;32.70;38.45;100041.44;2109266;83;20992;-76
2021/07/07 09:09:07;;;;;;;7.90;3.02;;;;;;;32.53;39.37;100035.30;2111161;83;21100;-76
2021/07/07 09:12:14;;;;;;;3.00;2.70;;;;;;;32.92;39.36;100037.81;2114609;83;21054;-75
2021/07/07 09:15:18;;;;;;;8.28;3.02;;;;;;;33.32;38.39;100033.64;2108174;83;21031;-74
2021/07/07 09:18:34;;;;;;;5.40;2.90;;;;;;;33.40;38.51;100036.97;2111635;83;21551;-75
2021/07/07 09:21:35;;;;;;;5.47;3.40;;;;;;;33.72;38.46;100029.41;2113860;83;21045;-75
2021/07/07 09:24:41;;;;;;;7.20;3.20;;;;;;;33.35;37.67;100034.38;2110639;83;21460;-76
2021/07/07 09:27:46;;;;;;;6.53;2.72;;;;;;;33.09;38.17;100033.53;2110959;83;21045;-74
2021/07/07 09:30:49;;;;;;;4.53;2.72;;;;;;;32.69;38.77;100041.73;2108321;83;21069;-77
2021/07/07 09:33:51;;;;;;;3.62;2.90;;;;;;;33.11;38.75;100033.42;2111990;83;21493;-71
2021/07/07 09:36:54;;;;;;;5.92;3.02;;;;;;;33.60;38.31;100032.81;2109947;83;21436;-72
2021/07/07 09:39:56;;;;;;;6.37;3.00;;;;;;;33.90;37.77;100037.08;2109697;83;20964;-72
2021/07/07 09:42:58;;;;;;;2.90;2.58;;;;;;;33.76;38.04;100037.27;2109372;83;21515;-74
2021/07/07 09:46:07;;;;;;;3.50;3.20;;;;;;;33.37;37.18;100040.94;2108050;83;21066;-76
2021/07/07 09:49:08;;;;;;;3.65;2.70;;;;;;;33.08;37.54;100039.56;2113013;83;21526;-73
2021/07/07 09:52:10;;;;;;;4.80;2.90;;;;;;;33.04;38.61;100038.59;2111656;83;21490;-72
2021/07/07 09:55:14;;;;;;;4.67;3.05;;;;;;;33.08;38.15;100040.13;2110211;83;20980;-72
2021/07/07 09:58:15;;;;;;;5.95;2.92;;;;;;;33.46;38.10;100042.55;2109405;83;21116;-70
2021/07/07 10:01:17;;;;;;;7.10;2.90;;;;;;;34.01;38.27;100045.24;2107791;83;22238;-70
2021/07/07 10:04:19;;;;;;;4.42;3.20;;;;;;;34.41;38.14;100051.94;2113133;83;20995;-70
2021/07/07 10:07:21;;;;;;;3.47;3.17;;;;;;;34.80;37.86;100050.03;2113564;83;21058;-70
2021/07/07 10:10:24;;;;;;;3.77;3.27;;;;;;;34.77;36.95;100047.36;2109089;83;21462;-69
2021/07/07 10:13:27;;;;;;;7.60;3.50;;;;;;;34.94;36.76;100053.94;2109056;83;21016;-70
2021/07/07 10:16:30;;;;;;;3.12;2.83;;;;;;;35.02;36.53;100058.02;2111073;83;21089;-70
2021/07/07 10:19:32;;;;;;;5.28;3.25;;;;;;;35.18;36.07;100062.44;2114656;83;21102;-72
2021/07/07 10:22:34;;;;;;;3.50;2.98;;;;;;;35.16;36.42;100059.77;2107104;83;21026;-69
2021/07/07 10:25:37;;;;;;;5.37;3.20;;;;;;;34.99;35.69;100060.64;2111206;83;21003;-74
2021/07/07 10:28:39;;;;;;;5.97;3.50;;;;;;;34.45;35.79;100063.10;2111940;83;21085;-71
2021/07/07 10:32:01;;;;;;;3.50;3.20;;;;;;;34.39;35.93;100063.04;2111473;83;21108;-72
2021/07/07 10:35:11;;;;;;;19.73;4.20;;;;;;;34.43;36.48;100059.86;2117815;82;21593;-72
2021/07/07 10:38:14;;;;;;;12.07;3.55;;;;;;;34.64;36.40;100057.25;2104838;83;21507;-73
2021/07/07 10:41:16;;;;;;;4.62;3.15;;;;;;;34.37;36.13;100057.84;2113307;83;21030;-70
2021/07/07 10:44:29;;;;;;;3.87;2.65;;;;;;;34.12;36.75;100062.27;2112251;83;21620;-71
2021/07/07 10:47:35;;;;;;;4.97;2.92;;;;;;;33.92;36.92;100056.26;2114871;83;21052;-70
2021/07/07 10:50:36;;;;;;;3.42;2.60;;;;;;;33.55;37.65;100068.72;2109917;83;20988;-69
2021/07/07 10:53:38;;;;;;;5.83;2.87;;;;;;;33.32;37.65;100069.39;2110498;83;21002;-70
2021/07/07 10:56:47;;;;;;;3.02;2.80;;;;;;;33.14;38.38;100061.67;2110393;83;22205;-74
2021/07/07 10:59:55;;;;;;;3.67;2.70;;;;;;;33.17;38.59;100069.81;2106681;83;21685;-71
2021/07/07 11:03:35;;;;;;;3.75;2.98;;;;;;;32.77;38.70;100068.44;2106390;83;21011;-72
2021/07/07 11:06:39;;;;;;;5.58;2.90;;;;;;;32.60;39.09;100071.91;2102493;83;21070;-75
2021/07/07 11:09:41;;;;;;;4.75;2.62;;;;;;;32.70;39.32;100076.34;2107668;83;21431;-71
2021/07/07 11:12:57;;;;;;;6.17;2.60;;;;;;;32.65;39.37;100077.84;2111720;83;21046;-72
2021/07/07 11:15:58;;;;;;;5.17;2.50;;;;;;;32.51;39.34;100077.36;2109837;83;21096;-73
2021/07/07 11:19:03;;;;;;;2.70;2.47;;;;;;;32.37;39.76;100078.78;2109609;83;21132;-69
2021/07/07 11:22:06;;;;;;;5.22;2.50;;;;;;;32.22;40.08;100071.51;2102844;83;21047;-70
2021/07/07 11:25:12;;;;;;;5.05;2.52;;;;;;;32.10;40.39;100079.74;2107823;83;21049;-69
2021/07/07 11:28:16;;;;;;;5.78;2.92;;;;;;;31.97;40.16;100072.38;2106820;83;21497;-71
2021/07/07 11:31:20;;;;;;;4.05;2.70;;;;;;;31.80;40.48;100078.49;2105639;83;21549;-70
2021/07/07 11:34:22;;;;;;;4.60;3.12;;;;;;;32.24;41.00;100070.08;2107320;83;21133;-71
2021/07/07 11:37:30;;;;;;;5.33;2.80;;;;;;;32.60;40.80;100080.95;2104293;83;22478;-73
2021/07/07 11:40:38;;;;;;;7.62;2.42;;;;;;;32.48;40.08;100083.48;2107164;83;21468;-71
2021/07/07 11:43:39;;;;;;;3.33;2.80;;;;;;;32.15;40.48;100094.69;2104883;83;21021;-71
2021/07/07 11:46:41;;;;;;;6.83;3.10;;;;;;;31.93;40.67;100101.00;2109585;83;21478;-72
2021/07/07 11:49:48;;;;;;;5.20;2.40;;;;;;;32.13;40.78;100091.47;2107641;83;20993;-71
2021/07/07 11:53:06;;;;;;;3.22;2.60;;;;;;;32.22;40.56;100098.39;2096798;83;21002;-71
2021/07/07 11:56:16;;;;;;;7.58;2.40;;;;;;;32.17;40.79;100096.33;2108822;83;21050;-72
2021/07/07 11:59:20;;;;;;;3.58;2.52;;;;;;;31.87;40.43;100106.86;2106393;83;21073;-72
2021/07/07 12:02:23;;;;;;;6.85;2.20;;;;;;;31.43;41.10;100110.56;2107113;83;21102;-73
2021/07/07 12:05:25;;;;;;;7.95;2.00;;;;;;;31.38;41.70;100110.66;2104500;83;21038;-81
2021/07/07 12:08:36;;;;;;;6.15;1.90;;;;;;;31.14;41.52;100123.19;2110835;83;21031;-82
2021/07/07 12:11:38;;;;;;;4.08;1.77;;;;;;;30.80;42.04;100117.53;2102650;83;21081;-77
2021/07/07 12:14:40;;;;;;;9.38;2.10;;;;;;;30.82;42.62;100130.34;2107256;83;21104;-76
2021/07/07 12:17:47;;;;;;;4.72;2.00;;;;;;;30.78;42.63;100128.49;2111590;83;21061;-75
2021/07/07 12:20:49;;;;;;;5.70;1.92;;;;;;;30.56;42.59;100143.64;2111877;83;21070;-75
2021/07/07 12:23:54;;;;;;;10.70;1.75;;;;;;;30.22;42.99;100138.45;2112003;83;21014;-74
2021/07/07 12:27:05;;;;;;;10.58;2.40;;;;;;;29.89;43.42;100153.38;2110585;83;21049;-80
2021/07/07 12:30:08;;;;;;;9.45;1.52;;;;;;;29.63;44.19;100148.81;2113670;83;21010;-73
2021/07/07 12:33:12;;;;;;;18.92;2.33;;;;;;;29.21;44.80;100148.20;2108190;83;20991;-83
2021/07/07 12:36:28;;;;;;;17.52;2.10;;;;;;;29.21;44.80;100148.20;2112087;83;21447;-87
2021/07/07 12:39:34;;;;;;;6.22;2.10;;;;;;;29.13;44.85;100167.95;2111432;83;21534;-81
2021/07/07 12:42:39;;;;;;;4.40;1.98;;;;;;;28.93;45.44;100175.20;2111331;83;20983;-80
2021/07/07 12:45:39;;;;;;;7.30;1.90;;;;;;;28.88;45.51;100191.62;2111360;83;21034;-82
2021/07/07 12:48:53;;;;;;;4.53;1.87;;;;;;;28.93;46.10;100197.61;2111226;83;21488;-79
2021/07/07 12:51:55;;;;;;;4.67;1.80;;;;;;;28.91;46.05;100195.70;2108282;82;21023;-77
2021/07/07 12:55:11;;;;;;;4.20;2.10;;;;;;;28.82;45.60;100210.53;2090351;84;21360;-80
2021/07/07 12:58:15;;;;;;;3.52;1.95;;;;;;;28.63;45.87;100228.14;2109186;83;21058;-80
2021/07/07 13:01:22;;;;;;;5.58;1.62;;;;;;;28.37;45.60;100226.11;2111854;83;21050;-76
2021/07/07 13:04:23;;;;;;;17.90;2.60;;;;;;;27.92;46.09;100238.34;2088920;83;20975;-76
2021/07/07 13:07:25;;;;;;;12.70;2.37;;;;;;;27.39;46.27;100249.38;2113835;83;21009;-78
2021/07/07 13:10:32;;;;;;;5.60;2.20;;;;;;;26.80;46.88;100258.34;2114968;83;20975;-76
2021/07/07 13:13:43;;;;;;;10.48;2.00;;;;;;;26.53;47.92;100254.52;2109244;83;21124;-83
2021/07/07 13:16:52;;;;;;;3.10;1.90;;;;;;;26.31;48.66;100262.05;2110660;83;21047;-82
2021/07/07 13:20:03;;;;;;;4.70;2.22;;;;;;;26.12;49.03;100254.37;2110544;82;21032;-81
2021/07/07 13:23:05;;;;;;;2.75;1.98;;;;;;;25.80;49.44;100255.84;2112556;83;21706;-78
2021/07/07 13:26:28;;;;;;;9.03;2.27;;;;;;;25.63;49.90;100263.36;2106751;83;21094;-79
2021/07/07 13:29:49;;;;;;;3.50;2.20;;;;;;;25.71;50.18;100262.88;2113625;83;21124;-76
2021/07/07 13:32:51;;;;;;;10.30;2.75;;;;;;;25.91;50.68;100264.90;2110790;83;21029;-77
2021/07/07 13:35:52;;;;;;;5.85;2.83;;;;;;;26.00;50.53;100272.00;2106338;83;21506;-77
2021/07/07 13:38:54;;;;;;;7.30;2.58;;;;;;;25.77;50.30;100266.44;2112308;83;20986;-80
2021/07/07 13:41:56;;;;;;;4.47;2.17;;;;;;;25.60;50.69;100285.08;2109767;83;21004;-77
2021/07/07 13:44:58;;;;;;;6.45;2.30;;;;;;;25.48;51.25;100282.56;2112484;83;21577;-77
2021/07/07 13:48:00;;;;;;;5.97;2.20;;;;;;;25.52;51.56;100286.12;2108384;83;20990;-79
2021/07/07 13:51:02;;;;;;;4.03;2.33;;;;;;;25.39;51.44;100292.26;2110330;83;21014;-77
2021/07/07 13:54:03;;;;;;;4.92;2.02;;;;;;;25.34;51.67;100291.41;2111132;83;21034;-76
2021/07/07 13:57:07;;;;;;;6.55;2.47;;;;;;;25.19;51.91;100296.19;2110406;83;21116;-78
2021/07/07 14:00:11;;;;;;;6.03;2.90;;;;;;;25.01;52.27;100314.47;2110327;83;21113;-77
2021/07/07 14:03:12;;;;;;;7.75;2.52;;;;;;;24.81;52.48;100316.45;2109603;83;21091;-77
2021/07/07 14:06:14;;;;;;;5.80;2.45;;;;;;;24.70;52.95;100313.90;2111920;83;22119;-77
2021/07/07 14:09:16;;;;;;;6.45;2.10;;;;;;;24.52;53.01;100313.14;2111568;83;21122;-78
2021/07/07 14:12:17;;;;;;;14.85;3.02;;;;;;;24.34;53.77;100312.11;2109539;83;21033;-78
2021/07/07 14:15:24;;;;;;;3.75;2.02;;;;;;;24.24;53.55;100306.55;2109374;83;21045;-79